Time;durP1;ratioP1;P1;durP2;ratioP2;P2;SDS_P1;SDS_P2;PMS_P1;PMS_P2;Temp;Humidity;BMP_temperature;BMP_pressure;BME280_temperature;BME280_humidity;BME280_pressure;Samples;Min_cycle;Max_cycle;Signal;HPM_P1;HPM_P2
2023/08/30 00:00:55;;;;;;;16.85;8.85;;;;;;;20.75;77.84;93079.16;5024654;28;20398;-77
2023/08/30 00:03:21;;;;;;;13.18;7.95;;;;;;;20.69;77.63;93066.44;5024515;28;20037;-77
2023/08/30 00:05:46;;;;;;;14.35;7.43;;;;;;;20.62;78.12;93068.03;5024573;28;20100;-77
2023/08/30 00:08:13;;;;;;;13.57;8.02;;;;;;;20.56;77.90;93063.41;5024635;28;20026;-77
2023/08/30 00:10:39;;;;;;;10.15;6.22;;;;;;;20.43;75.41;93071.97;5025480;28;20237;-77
2023/08/30 00:13:04;;;;;;;19.15;8.00;;;;;;;20.42;76.13;93086.66;5025523;28;20064;-76
2023/08/30 00:15:30;;;;;;;14.52;8.00;;;;;;;20.42;77.46;93077.78;5025611;28;20277;-76
2023/08/30 00:17:55;;;;;;;9.75;6.10;;;;;;;20.32;74.57;93084.78;5025507;28;20033;-76
2023/08/30 00:20:21;;;;;;;13.57;5.60;;;;;;;20.21;71.43;93084.81;5025476;28;20033;-77
2023/08/30 00:22:48;;;;;;;10.15;5.50;;;;;;;20.07;71.62;93079.47;5025389;28;20239;-77
2023/08/30 00:25:14;;;;;;;9.05;5.32;;;;;;;19.88;69.26;93074.50;5025334;28;20067;-77
2023/08/30 00:27:39;;;;;;;12.25;5.90;;;;;;;19.86;69.13;93071.41;5025471;28;20046;-77
2023/08/30 00:30:06;;;;;;;14.23;5.53;;;;;;;19.81;68.86;93076.06;5025400;28;20320;-77
2023/08/30 00:32:31;;;;;;;16.58;5.88;;;;;;;19.77;70.41;93083.41;5025047;28;20018;-78
2023/08/30 00:34:56;;;;;;;12.07;5.18;;;;;;;19.68;68.48;93079.53;5025179;28;20021;-79
2023/08/30 00:37:23;;;;;;;15.77;5.90;;;;;;;19.59;68.91;93069.13;5025245;28;20030;-79
2023/08/30 00:39:49;;;;;;;11.95;5.28;;;;;;;19.60;70.59;93067.97;5024048;28;20089;-78
2023/08/30 00:42:14;;;;;;;7.72;4.95;;;;;;;19.58;71.24;93070.28;5023841;28;20018;-78
2023/08/30 00:44:40;;;;;;;14.20;5.88;;;;;;;19.50;70.79;93066.84;5024901;28;20310;-78
2023/08/30 00:47:06;;;;;;;10.48;5.75;;;;;;;19.50;69.22;93076.84;5025079;28;20021;-78
2023/08/30 00:49:32;;;;;;;12.32;5.05;;;;;;;19.44;68.44;93079.97;5024844;28;20018;-78
2023/08/30 00:52:01;;;;;;;14.75;5.20;;;;;;;19.49;69.52;93091.53;5024853;28;20449;-78
2023/08/30 00:54:26;;;;;;;8.30;5.00;;;;;;;19.53;70.23;93097.72;5024893;28;20056;-78
2023/08/30 00:56:52;;;;;;;10.40;5.22;;;;;;;19.53;68.44;93093.06;5024638;28;20022;-78
2023/08/30 00:59:18;;;;;;;15.95;5.15;;;;;;;19.37;67.50;93095.41;5024791;28;20033;-78
2023/08/30 01:01:44;;;;;;;16.30;5.40;;;;;;;19.20;66.97;93081.50;5024088;28;20033;-77
2023/08/30 01:04:10;;;;;;;9.45;4.80;;;;;;;19.22;67.96;93079.19;5024377;28;20025;-77
2023/08/30 01:06:35;;;;;;;12.38;5.50;;;;;;;19.23;67.19;93080.75;5024777;28;20025;-77
2023/08/30 01:09:05;;;;;;;8.43;4.47;;;;;;;19.28;67.19;93085.00;5023143;28;20148;-77
2023/08/30 01:11:43;;;;;;;13.38;5.95;;;;;;;19.35;66.57;93084.22;5024340;28;20042;-77
2023/08/30 01:14:13;;;;;;;9.73;4.43;;;;;;;19.36;65.79;93083.06;5024511;28;20032;-77
2023/08/30 01:16:39;;;;;;;7.18;4.13;;;;;;;19.39;66.93;93093.84;5024608;28;20018;-77
2023/08/30 01:19:24;;;;;;;12.63;4.60;;;;;;;19.38;66.81;93084.22;5024293;28;20208;-77
2023/08/30 01:21:49;;;;;;;8.82;4.47;;;;;;;19.40;67.66;93084.59;5024356;28;20247;-78
2023/08/30 01:24:40;;;;;;;9.05;4.68;;;;;;;19.43;67.99;93093.84;5024308;28;20021;-79
2023/08/30 01:27:10;;;;;;;12.63;4.82;;;;;;;19.44;68.22;93100.81;5024000;28;20439;-78
2023/08/30 01:29:42;;;;;;;14.88;5.90;;;;;;;19.47;69.70;93100.03;5024226;28;20320;-78
2023/08/30 01:32:09;;;;;;;8.25;5.07;;;;;;;19.52;69.82;93096.16;5024374;28;20026;-78
2023/08/30 01:34:39;;;;;;;11.45;5.13;;;;;;;19.52;69.65;93090.75;5022922;28;20045;-78
2023/08/30 01:37:08;;;;;;;12.60;5.70;;;;;;;19.50;69.49;93096.56;5024235;28;20328;-78
2023/08/30 01:39:36;;;;;;;11.68;4.70;;;;;;;19.52;70.03;93096.94;5024146;28;20021;-78
2023/08/30 01:42:03;;;;;;;14.30;5.07;;;;;;;19.51;69.61;93105.44;5022821;28;20036;-78
2023/08/30 01:44:30;;;;;;;15.63;5.25;;;;;;;19.56;69.47;93096.91;5023830;28;20125;-77
2023/08/30 01:47:00;;;;;;;24.30;6.30;;;;;;;19.57;68.97;93088.44;5023972;28;20069;-78
2023/08/30 01:49:28;;;;;;;15.38;5.53;;;;;;;19.67;69.65;93095.00;5023847;28;20034;-78
2023/08/30 01:51:54;;;;;;;13.23;6.00;;;;;;;19.71;70.98;93087.66;5023808;28;20096;-78
2023/08/30 01:54:21;;;;;;;12.40;5.90;;;;;;;19.76;72.00;93095.41;5023462;28;20030;-78
2023/08/30 01:56:46;;;;;;;13.38;5.53;;;;;;;19.77;71.77;93096.16;5023725;28;20040;-78
2023/08/30 01:59:12;;;;;;;14.60;5.82;;;;;;;19.76;71.60;93102.72;5023577;28;20025;-77
2023/08/30 02:01:38;;;;;;;10.10;5.25;;;;;;;19.78;70.58;93101.19;5023879;28;20022;-77
2023/08/30 02:04:04;;;;;;;11.90;5.03;;;;;;;19.80;71.23;93100.78;5023501;28;20087;-77
2023/08/30 02:06:29;;;;;;;10.70;6.03;;;;;;;19.80;71.08;93089.97;5023452;28;20363;-77
2023/08/30 02:09:14;;;;;;;13.32;5.40;;;;;;;19.79;71.01;93089.19;5023417;28;20022;-77
2023/08/30 02:11:44;;;;;;;8.43;4.90;;;;;;;19.75;70.49;93091.13;5023324;28;20073;-78
2023/08/30 02:14:15;;;;;;;14.73;5.55;;;;;;;19.72;70.76;93089.22;5023239;28;20022;-78
2023/08/30 02:16:42;;;;;;;9.75;5.35;;;;;;;19.69;71.61;93081.84;5023406;28;20090;-77
2023/08/30 02:19:07;;;;;;;7.57;5.20;;;;;;;19.69;69.49;93083.78;5023384;28;20327;-78
2023/08/30 02:21:33;;;;;;;10.38;4.63;;;;;;;19.61;66.07;93088.44;5023199;28;20026;-78
2023/08/30 02:23:58;;;;;;;10.52;4.43;;;;;;;19.61;65.79;93080.31;5022783;28;20086;-77
2023/08/30 02:26:24;;;;;;;12.18;4.20;;;;;;;19.58;64.85;93072.97;5022612;28;20025;-77
2023/08/30 02:28:49;;;;;;;11.60;4.50;;;;;;;19.58;65.49;93081.09;5023135;28;20308;-77
2023/08/30 02:31:15;;;;;;;10.65;4.90;;;;;;;19.54;66.75;93083.03;5023092;28;20128;-77
2023/08/30 02:33:40;;;;;;;14.38;5.15;;;;;;;19.60;67.68;93086.88;5023187;28;20065;-78
2023/08/30 02:36:06;;;;;;;12.98;6.07;;;;;;;19.60;68.07;93078.78;5023326;28;20021;-78
2023/08/30 02:38:31;;;;;;;17.33;5.60;;;;;;;19.60;68.27;93089.56;5021828;28;20026;-78
2023/08/30 02:40:56;;;;;;;13.60;5.63;;;;;;;19.53;67.91;93086.91;5022911;28;20025;-78
2023/08/30 02:43:22;;;;;;;13.55;5.45;;;;;;;19.45;68.03;93092.31;5023145;28;20017;-78
2023/08/30 02:45:47;;;;;;;13.27;5.65;;;;;;;19.39;68.10;93096.56;5023099;28;20018;-78
2023/08/30 02:48:14;;;;;;;12.07;4.93;;;;;;;19.43;68.42;93083.03;5022908;28;20324;-78
2023/08/30 02:50:39;;;;;;;9.02;5.72;;;;;;;19.39;68.24;93083.03;5022072;28;20045;-78
2023/08/30 02:53:08;;;;;;;10.90;5.32;;;;;;;19.34;68.19;93074.56;5023128;28;20255;-78
2023/08/30 02:55:33;;;;;;;9.63;5.57;;;;;;;19.35;69.53;93073.41;5023033;28;20019;-78
2023/08/30 02:57:59;;;;;;;7.18;4.97;;;;;;;19.31;69.49;93072.63;5022790;28;20045;-78
2023/08/30 03:00:24;;;;;;;10.63;5.25;;;;;;;19.26;70.25;93073.81;5022877;28;20028;-78
2023/08/30 03:02:50;;;;;;;14.10;5.53;;;;;;;19.29;69.60;93075.72;5022830;28;20096;-78
2023/08/30 03:05:15;;;;;;;8.68;4.35;;;;;;;19.18;64.51;93074.97;5022755;28;20021;-78
2023/08/30 03:07:41;;;;;;;7.10;4.07;;;;;;;19.13;64.22;93080.75;5022868;28;20014;-78
2023/08/30 03:10:07;;;;;;;10.73;4.05;;;;;;;19.10;64.77;93076.13;5023050;28;20014;-78
2023/08/30 03:12:33;;;;;;;10.05;4.22;;;;;;;19.12;65.00;93079.97;5022743;28;20217;-78
2023/08/30 03:18:21;;;;;;;14.88;3.95;;;;;;;19.12;63.91;93084.63;5012894;28;20040;-78
2023/08/30 03:20:47;;;;;;;6.32;3.65;;;;;;;19.10;61.87;93084.22;5021957;28;20041;-78
2023/08/30 03:23:12;;;;;;;14.85;3.63;;;;;;;19.09;62.82;93080.75;5021606;28;20034;-78
2023/08/30 03:25:37;;;;;;;11.60;4.13;;;;;;;19.08;63.91;93078.44;5023390;28;20112;-78
2023/08/30 03:28:03;;;;;;;14.68;4.50;;;;;;;19.09;64.34;93079.97;5026368;28;20040;-78
2023/08/30 03:30:30;;;;;;;23.17;4.90;;;;;;;19.11;64.96;93080.34;5026490;28;20396;-78
2023/08/30 03:32:55;;;;;;;22.05;6.07;;;;;;;19.07;65.08;93057.97;5026582;28;20280;-78
2023/08/30 03:35:21;;;;;;;34.70;11.75;;;;;;;19.09;65.50;93055.66;5026494;28;20026;-78
2023/08/30 03:37:47;;;;;;;25.42;7.22;;;;;;;19.05;66.19;93066.47;5026230;28;20029;-77
2023/08/30 03:40:12;;;;;;;20.92;6.35;;;;;;;19.04;65.96;93057.59;5026184;28;20025;-78
2023/08/30 03:42:37;;;;;;;20.85;5.68;;;;;;;19.03;65.82;93049.88;5026262;28;20041;-78
2023/08/30 03:45:05;;;;;;;14.73;5.80;;;;;;;19.00;66.26;93067.63;5026043;28;20064;-78
2023/08/30 03:47:30;;;;;;;16.20;5.60;;;;;;;18.91;66.71;93059.16;5026115;28;20029;-78
2023/08/30 03:49:56;;;;;;;18.67;5.65;;;;;;;18.83;67.45;93065.69;5026048;28;20018;-79
2023/08/30 03:52:21;;;;;;;18.45;5.07;;;;;;;18.80;67.93;93063.75;5026025;28;20312;-79
2023/08/30 03:54:47;;;;;;;12.38;4.18;;;;;;;18.82;68.10;93073.00;5025974;28;20021;-77
2023/08/30 03:57:12;;;;;;;15.90;4.55;;;;;;;18.86;68.02;93072.25;5025759;28;20047;-79
2023/08/30 03:59:37;;;;;;;10.32;4.65;;;;;;;18.84;67.04;93080.72;5026093;28;20033;-78
2023/08/30 04:02:03;;;;;;;8.55;4.22;;;;;;;18.87;66.05;93087.28;5025726;28;20022;-78
2023/08/30 04:04:28;;;;;;;16.38;4.43;;;;;;;18.90;66.16;93097.31;5025613;28;20297;-79
2023/08/30 04:06:54;;;;;;;12.68;4.25;;;;;;;18.98;66.40;93096.16;5025672;28;20018;-79
2023/08/30 04:09:20;;;;;;;17.70;4.45;;;;;;;19.06;66.34;93091.56;5025733;28;20014;-79
2023/08/30 04:11:46;;;;;;;32.47;5.15;;;;;;;19.16;67.32;93079.97;5025434;28;20084;-78
2023/08/30 04:14:11;;;;;;;24.02;4.78;;;;;;;19.40;67.45;93083.84;5025738;28;20096;-79
2023/08/30 04:16:37;;;;;;;11.88;4.40;;;;;;;19.59;67.72;93086.13;5025742;28;20077;-79
2023/08/30 04:19:02;;;;;;;22.58;4.60;;;;;;;19.70;67.87;93091.53;5025470;28;20068;-79
2023/08/30 04:21:28;;;;;;;12.90;4.80;;;;;;;19.76;64.32;93100.81;5025370;28;20022;-77
2023/08/30 04:23:53;;;;;;;16.48;5.63;;;;;;;19.84;64.78;93091.53;5025217;28;20022;-78
2023/08/30 04:26:18;;;;;;;10.18;4.80;;;;;;;19.97;65.32;93112.72;5024336;28;20022;-80
2023/08/30 04:28:44;;;;;;;10.98;5.55;;;;;;;20.04;64.74;93113.47;5025367;28;20022;-78
2023/08/30 04:31:10;;;;;;;9.43;4.95;;;;;;;20.09;63.57;93117.72;5025483;28;20045;-78
2023/08/30 04:33:35;;;;;;;12.38;6.10;;;;;;;20.11;62.86;93131.63;5025326;28;20050;-78
2023/08/30 04:36:03;;;;;;;9.20;5.07;;;;;;;20.11;63.94;93134.34;5024054;28;20097;-78
2023/08/30 04:38:29;;;;;;;9.10;4.25;;;;;;;20.06;63.77;93137.44;5024939;28;20017;-79
2023/08/30 04:41:01;;;;;;;9.88;4.25;;;;;;;20.06;63.54;93142.84;5025139;28;20030;-78
2023/08/30 04:43:26;;;;;;;18.92;5.28;;;;;;;20.08;63.99;93153.28;5025159;28;20037;-77
2023/08/30 04:45:52;;;;;;;15.38;5.55;;;;;;;20.02;64.02;93144.78;5023721;28;20343;-76
2023/08/30 04:48:17;;;;;;;15.38;4.38;;;;;;;19.93;63.82;93142.47;5025006;28;20022;-77
2023/08/30 04:50:43;;;;;;;12.57;4.32;;;;;;;19.84;62.30;93140.19;5024960;28;20018;-79
2023/08/30 04:53:08;;;;;;;7.60;3.67;;;;;;;19.81;61.10;93143.66;5023968;28;20029;-78
2023/08/30 04:55:34;;;;;;;8.05;3.72;;;;;;;19.78;61.20;93140.94;5024810;28;20021;-77
2023/08/30 04:57:59;;;;;;;12.77;5.18;;;;;;;19.74;62.22;93146.38;5024836;28;20335;-77
2023/08/30 05:00:25;;;;;;;13.32;3.97;;;;;;;19.72;62.49;93143.28;5024663;28;20022;-78
2023/08/30 05:02:50;;;;;;;6.63;2.60;;;;;;;19.72;59.52;93142.50;5023713;28;20099;-77
2023/08/30 05:05:16;;;;;;;5.90;2.47;;;;;;;19.67;56.06;93135.53;5024753;28;20029;-78
2023/08/30 05:07:41;;;;;;;10.50;2.55;;;;;;;19.64;57.38;93136.31;5023248;28;20109;-78
2023/08/30 05:10:07;;;;;;;11.68;2.88;;;;;;;19.69;58.15;93132.44;5025043;28;20014;-79
2023/08/30 05:12:34;;;;;;;7.20;2.67;;;;;;;19.68;57.67;93137.06;5023219;28;20304;-78
2023/08/30 05:15:00;;;;;;;9.48;2.97;;;;;;;19.64;57.82;93131.69;5024412;28;20544;-76
2023/08/30 05:17:28;;;;;;;7.10;2.50;;;;;;;19.67;58.99;93127.44;5024219;28;20022;-77
2023/08/30 05:19:53;;;;;;;9.68;3.28;;;;;;;19.70;58.78;93133.97;5024385;28;20042;-77
2023/08/30 05:22:18;;;;;;;12.35;3.13;;;;;;;19.75;59.69;93136.34;5024400;28;20339;-77
2023/08/30 05:24:44;;;;;;;12.27;3.58;;;;;;;19.79;59.06;93132.47;5024390;28;20363;-77
2023/08/30 05:27:11;;;;;;;10.65;2.92;;;;;;;19.83;58.19;93138.63;5024189;28;20021;-76
2023/08/30 05:29:37;;;;;;;8.02;2.65;;;;;;;19.91;58.21;93150.22;5024336;28;20050;-76
2023/08/30 05:32:02;;;;;;;10.30;2.80;;;;;;;19.99;58.05;93156.38;5024062;28;20100;-77
2023/08/30 05:34:28;;;;;;;10.02;2.50;;;;;;;19.98;58.53;93160.25;5024105;28;20094;-78
2023/08/30 05:36:53;;;;;;;10.82;3.83;;;;;;;20.12;59.35;93162.91;5023977;28;20037;-76
2023/08/30 05:39:19;;;;;;;10.52;3.15;;;;;;;20.21;59.35;93155.19;5023752;28;20025;-76
2023/08/30 05:41:44;;;;;;;14.88;5.45;;;;;;;20.28;59.47;93159.03;5023396;28;20029;-75
2023/08/30 05:44:10;;;;;;;11.80;3.13;;;;;;;20.35;58.99;93159.78;5023914;28;20205;-76
2023/08/30 05:46:35;;;;;;;10.68;3.20;;;;;;;20.42;58.79;93156.28;5023754;28;20044;-77
2023/08/30 05:49:02;;;;;;;7.47;2.85;;;;;;;20.48;57.73;93148.53;5022941;28;20025;-77
2023/08/30 05:51:28;;;;;;;7.28;2.63;;;;;;;20.57;57.33;93152.31;5023420;28;20335;-76
2023/08/30 05:53:54;;;;;;;10.50;3.40;;;;;;;20.60;57.29;93154.28;5023561;28;20021;-78
2023/08/30 05:56:19;;;;;;;9.30;3.22;;;;;;;20.63;57.39;93150.78;5023582;28;20065;-78
2023/08/30 05:58:45;;;;;;;10.02;3.20;;;;;;;20.69;57.37;93148.44;5023637;28;20251;-76
2023/08/30 06:01:10;;;;;;;9.85;3.72;;;;;;;20.78;55.82;93145.28;5023605;28;20021;-77
2023/08/30 06:03:36;;;;;;;9.70;3.10;;;;;;;20.75;56.41;93154.22;5023597;28;20017;-76
2023/08/30 06:06:01;;;;;;;7.10;2.88;;;;;;;20.67;55.33;93164.31;5023502;28;20025;-76
2023/08/30 06:08:27;;;;;;;6.75;3.42;;;;;;;20.61;56.31;93153.09;5023455;28;20010;-76
2023/08/30 06:10:52;;;;;;;5.55;3.22;;;;;;;20.66;57.10;93149.25;5023445;28;20018;-78
2023/08/30 06:13:17;;;;;;;6.90;3.13;;;;;;;20.68;55.73;93149.63;5023162;28;20064;-79
2023/08/30 06:15:45;;;;;;;10.98;3.10;;;;;;;20.72;56.07;93141.47;5023631;28;20041;-78
2023/08/30 06:18:10;;;;;;;6.82;3.13;;;;;;;20.72;55.67;93157.69;5023358;28;20024;-80
2023/08/30 06:20:39;;;;;;;11.57;2.97;;;;;;;20.69;56.18;93153.09;5023525;28;20022;-80
2023/08/30 06:23:05;;;;;;;9.82;3.83;;;;;;;20.80;55.72;93142.97;5023253;28;20044;-79
2023/08/30 06:25:30;;;;;;;9.40;3.00;;;;;;;20.84;56.08;93152.63;5023659;28;20029;-79
2023/08/30 06:27:58;;;;;;;15.95;3.40;;;;;;;21.02;56.52;93160.66;5023152;28;20089;-79
2023/08/30 06:30:25;;;;;;;8.88;3.42;;;;;;;21.03;55.83;93150.59;5023072;28;20060;-79
2023/08/30 06:32:51;;;;;;;11.73;3.63;;;;;;;21.09;55.70;93159.06;5023095;28;20017;-78
2023/08/30 06:35:16;;;;;;;10.40;3.65;;;;;;;21.25;56.10;93156.66;5023166;28;20052;-79
2023/08/30 06:37:41;;;;;;;6.15;3.00;;;;;;;21.41;56.00;93161.53;5022952;28;20024;-79
2023/08/30 06:40:07;;;;;;;8.13;2.70;;;;;;;21.54;56.17;93164.59;5022988;28;20033;-80
2023/08/30 06:42:33;;;;;;;17.38;3.30;;;;;;;21.69;55.99;93160.59;5022886;28;20026;-79
2023/08/30 06:44:59;;;;;;;10.85;3.10;;;;;;;21.88;55.17;93164.69;5022822;28;20076;-77
2023/08/30 06:47:24;;;;;;;10.20;3.28;;;;;;;22.09;54.46;93161.00;5022818;28;20220;-77
2023/08/30 06:49:49;;;;;;;8.00;3.47;;;;;;;22.26;52.95;93155.81;5023100;28;20013;-77
2023/08/30 06:52:15;;;;;;;12.13;3.05;;;;;;;22.37;53.09;93154.53;5023089;28;20024;-77
2023/08/30 06:54:40;;;;;;;8.70;3.20;;;;;;;22.45;51.73;93152.53;5022815;28;20297;-77
2023/08/30 06:57:06;;;;;;;10.43;3.35;;;;;;;22.50;51.42;93143.91;5022990;28;20018;-77
2023/08/30 06:59:32;;;;;;;8.70;3.03;;;;;;;22.56;50.44;93152.38;5021592;28;20022;-77
2023/08/30 07:01:58;;;;;;;9.63;2.83;;;;;;;22.63;50.41;93163.16;5025994;28;20037;-80
2023/08/30 07:04:24;;;;;;;8.82;3.13;;;;;;;22.59;50.18;93154.28;5026767;28;20033;-79
2023/08/30 07:06:49;;;;;;;11.38;3.28;;;;;;;22.53;50.21;93162.13;5026959;28;20320;-80
2023/08/30 07:09:14;;;;;;;9.82;3.22;;;;;;;22.51;50.45;93155.53;5025545;28;20022;-77
2023/08/30 07:11:45;;;;;;;15.02;3.80;;;;;;;22.60;49.78;93153.88;5026740;28;20050;-77
2023/08/30 07:14:12;;;;;;;12.38;3.35;;;;;;;22.60;49.80;93158.56;5025901;28;20036;-82
2023/08/30 07:16:38;;;;;;;7.93;3.30;;;;;;;22.49;49.77;93155.19;5024269;28;20267;-84
2023/08/30 07:19:03;;;;;;;11.57;2.72;;;;;;;22.52;48.92;93157.84;5025718;28;20050;-84
2023/08/30 07:21:29;;;;;;;11.65;3.38;;;;;;;22.46;49.53;93151.34;5024515;28;20105;-85
2023/08/30 07:23:54;;;;;;;6.43;3.00;;;;;;;22.57;49.75;93160.13;5024029;28;20036;-84
2023/08/30 07:26:20;;;;;;;11.82;2.83;;;;;;;22.53;49.09;93158.63;5022250;28;20313;-84
2023/08/30 07:28:45;;;;;;;5.97;2.33;;;;;;;22.44;48.52;93159.13;5022400;28;20025;-84
2023/08/30 07:31:14;;;;;;;6.80;2.90;;;;;;;22.55;48.44;93159.78;5021504;28;20218;-85
2023/08/30 07:33:39;;;;;;;9.02;3.25;;;;;;;22.60;48.20;93158.56;5023237;28;20030;-84
2023/08/30 07:36:05;;;;;;;13.98;3.88;;;;;;;22.72;49.08;93165.41;5023210;28;20312;-84
2023/08/30 07:38:31;;;;;;;9.82;2.10;;;;;;;22.77;46.13;93168.41;5024373;28;20384;-84
2023/08/30 07:40:56;;;;;;;9.98;2.42;;;;;;;22.86;45.07;93159.78;5024651;28;20013;-84
2023/08/30 07:43:22;;;;;;;7.25;2.60;;;;;;;22.91;46.39;93162.03;5025262;28;20025;-85
2023/08/30 07:45:47;;;;;;;13.32;3.15;;;;;;;22.98;46.85;93151.06;5024844;28;20022;-84
2023/08/30 07:48:13;;;;;;;8.63;3.58;;;;;;;23.09;47.95;93155.63;5026259;28;20025;-85
2023/08/30 07:50:38;;;;;;;13.18;3.80;;;;;;;23.15;47.72;93154.00;5026191;28;20033;-85
2023/08/30 07:53:04;;;;;;;9.68;3.30;;;;;;;23.21;46.30;93160.50;5025854;28;20045;-85
2023/08/30 07:55:29;;;;;;;9.77;2.72;;;;;;;23.24;46.47;93162.38;5026161;28;20026;-85
2023/08/30 07:57:55;;;;;;;12.35;2.88;;;;;;;23.31;46.24;93150.66;5025932;28;20234;-85
2023/08/30 08:00:21;;;;;;;8.27;3.15;;;;;;;23.34;46.18;93160.69;5025745;28;20033;-85
2023/08/30 08:02:46;;;;;;;9.50;3.65;;;;;;;23.36;45.41;93153.66;5025717;28;20028;-84
2023/08/30 08:05:12;;;;;;;10.23;2.70;;;;;;;23.44;45.51;93163.25;5025665;28;20252;-84
2023/08/30 08:07:42;;;;;;;7.47;3.15;;;;;;;23.51;45.99;93153.44;5025807;28;20022;-84
2023/08/30 08:10:08;;;;;;;7.95;2.35;;;;;;;23.58;44.77;93169.66;5024689;28;20320;-84
2023/08/30 08:12:33;;;;;;;8.93;2.90;;;;;;;23.65;43.78;93158.69;5024843;28;20060;-84
2023/08/30 08:14:59;;;;;;;7.65;2.40;;;;;;;23.79;43.46;93158.47;5025418;28;20032;-85
2023/08/30 08:17:24;;;;;;;9.88;3.28;;;;;;;23.88;44.82;93168.06;5025503;28;20339;-84
2023/08/30 08:19:50;;;;;;;12.32;2.65;;;;;;;23.85;43.01;93172.34;5024375;28;20102;-85
2023/08/30 08:22:16;;;;;;;20.52;3.17;;;;;;;23.77;43.70;93166.28;5025373;28;20024;-84
2023/08/30 08:24:43;;;;;;;11.43;2.75;;;;;;;23.76;43.76;93170.16;5024168;28;20029;-84
2023/08/30 08:27:09;;;;;;;8.07;3.80;;;;;;;23.79;43.44;93169.38;5025518;28;20034;-84
2023/08/30 08:29:34;;;;;;;6.03;2.75;;;;;;;23.91;43.56;93175.38;5025044;28;20252;-85
2023/08/30 08:31:59;;;;;;;6.07;2.42;;;;;;;24.00;42.62;93179.13;5023968;28;20028;-84
2023/08/30 08:34:25;;;;;;;9.32;2.88;;;;;;;24.00;43.62;93179.13;5024066;28;20036;-84
2023/08/30 08:36:50;;;;;;;12.10;3.72;;;;;;;24.10;42.84;93171.94;5024028;28;20255;-84
2023/08/30 08:39:16;;;;;;;12.07;3.10;;;;;;;24.23;43.57;93178.31;5025005;28;20261;-83
2023/08/30 08:41:43;;;;;;;6.50;2.55;;;;;;;24.35;41.87;93179.66;5025086;28;20081;-84
2023/08/30 08:44:09;;;;;;;7.47;2.53;;;;;;;24.36;41.62;93178.50;5025216;28;20025;-84
2023/08/30 08:46:40;;;;;;;10.00;2.83;;;;;;;24.35;43.21;93182.38;5025215;28;20026;-84
2023/08/30 08:49:10;;;;;;;8.75;2.95;;;;;;;24.28;43.35;93179.78;5025044;28;20097;-84
2023/08/30 08:51:37;;;;;;;7.70;3.65;;;;;;;24.25;43.80;93179.88;5023706;28;20018;-84
2023/08/30 08:54:04;;;;;;;11.00;3.33;;;;;;;24.28;43.95;93173.56;5023619;28;20063;-84
2023/08/30 08:56:31;;;;;;;8.52;3.10;;;;;;;24.35;43.25;93173.47;5024481;28;20319;-84
2023/08/30 08:58:56;;;;;;;6.20;2.45;;;;;;;24.40;43.76;93168.31;5024455;28;20030;-84
2023/08/30 09:01:23;;;;;;;7.97;3.55;;;;;;;24.48;43.65;93168.16;5023477;28;20077;-85
2023/08/30 09:03:50;;;;;;;6.78;2.75;;;;;;;24.67;43.30;93164.69;5024508;28;20029;-85
2023/08/30 09:06:16;;;;;;;7.45;2.55;;;;;;;24.78;43.76;93172.66;5024446;28;20075;-84
2023/08/30 09:08:41;;;;;;;12.43;4.45;;;;;;;24.82;42.97;93159.72;5024616;28;20018;-84
2023/08/30 09:11:06;;;;;;;9.50;3.17;;;;;;;24.85;43.19;93163.56;5024424;28;20032;-85
2023/08/30 09:13:32;;;;;;;16.60;3.03;;;;;;;24.81;43.22;93155.44;5024189;28;20063;-84
2023/08/30 09:15:58;;;;;;;14.10;4.20;;;;;;;24.71;43.50;93165.41;5024394;28;20022;-84
2023/08/30 09:18:27;;;;;;;9.00;2.78;;;;;;;24.70;43.35;93160.34;5024239;28;20022;-84
2023/08/30 09:20:53;;;;;;;8.90;3.10;;;;;;;24.65;44.48;93147.22;5024371;28;20026;-84
2023/08/30 09:23:20;;;;;;;13.90;4.90;;;;;;;24.62;44.02;93157.75;5022362;28;20064;-84
2023/08/30 09:25:46;;;;;;;10.85;4.50;;;;;;;24.56;43.94;93151.28;5024186;28;20209;-84
2023/08/30 09:28:11;;;;;;;6.85;3.88;;;;;;;24.70;43.98;93154.91;5024138;28;20071;-85
2023/08/30 09:30:36;;;;;;;10.18;3.00;;;;;;;24.82;43.27;93151.53;5024349;28;20025;-84
2023/08/30 09:33:03;;;;;;;7.18;3.00;;;;;;;24.97;41.72;93154.72;5022796;28;20048;-84
2023/08/30 09:35:28;;;;;;;10.32;3.45;;;;;;;25.04;42.28;93149.16;5022909;28;20060;-85
2023/08/30 09:37:54;;;;;;;5.88;3.70;;;;;;;25.15;40.21;93155.13;5023972;28;20302;-85
2023/08/30 09:40:20;;;;;;;7.20;3.70;;;;;;;25.15;40.66;93152.38;5023949;28;20029;-85
2023/08/30 09:42:45;;;;;;;8.93;3.67;;;;;;;25.21;40.81;93164.34;5023858;28;20026;-85
2023/08/30 09:45:26;;;;;;;7.85;3.60;;;;;;;25.17;40.64;93163.63;5022623;28;20026;-84
2023/08/30 09:47:52;;;;;;;7.22;3.65;;;;;;;25.09;41.00;93151.34;5023946;28;20025;-84
2023/08/30 09:50:19;;;;;;;9.95;4.10;;;;;;;25.07;41.67;93147.53;5023633;28;20017;-84
2023/08/30 09:52:49;;;;;;;13.40;4.30;;;;;;;25.04;42.20;93149.16;5023840;28;20028;-84
2023/08/30 09:55:17;;;;;;;8.23;3.72;;;;;;;25.06;41.81;93140.56;5022381;28;20033;-85
2023/08/30 09:57:43;;;;;;;11.15;4.40;;;;;;;25.20;41.92;93140.22;5022375;28;20216;-85
2023/08/30 10:00:12;;;;;;;10.68;4.55;;;;;;;25.39;41.98;93130.47;5022666;28;20041;-84
2023/08/30 10:02:41;;;;;;;13.00;4.53;;;;;;;25.65;41.48;93133.38;5023892;28;20324;-84
2023/08/30 10:05:11;;;;;;;9.80;3.97;;;;;;;25.78;40.71;93134.97;5023696;28;20018;-84
2023/08/30 10:07:38;;;;;;;11.73;3.90;;;;;;;25.79;40.13;93136.53;5023621;28;20389;-84
2023/08/30 10:10:07;;;;;;;17.77;4.35;;;;;;;25.74;41.55;93134.31;5022269;28;20018;-84
2023/08/30 10:12:32;;;;;;;9.65;4.28;;;;;;;25.69;41.10;93137.56;5023241;28;20095;-84
2023/08/30 10:14:58;;;;;;;11.48;3.67;;;;;;;25.72;39.68;93131.22;5023164;28;20225;-84
2023/08/30 10:17:27;;;;;;;12.77;3.80;;;;;;;25.74;40.42;93128.09;5023070;28;20025;-84
2023/08/30 10:19:53;;;;;;;7.85;3.80;;;;;;;25.73;39.88;93124.59;5022689;28;20362;-84
2023/08/30 10:22:20;;;;;;;7.93;3.67;;;;;;;25.71;40.69;93124.25;5022845;28;20049;-84
2023/08/30 10:25:04;;;;;;;12.00;4.30;;;;;;;25.68;40.46;93114.19;5021970;28;20022;-85
2023/08/30 10:27:33;;;;;;;12.05;4.15;;;;;;;25.68;40.97;93125.09;5022080;28;20018;-85
2023/08/30 10:30:01;;;;;;;8.85;3.85;;;;;;;25.57;40.78;93133.56;5023043;28;20024;-85
2023/08/30 10:32:27;;;;;;;6.55;4.00;;;;;;;25.48;39.51;93132.59;5023202;28;20052;-85
2023/08/30 10:34:52;;;;;;;9.60;3.80;;;;;;;25.59;40.42;93127.69;5021967;28;20030;-85
2023/08/30 10:37:26;;;;;;;13.75;4.65;;;;;;;25.75;39.25;93116.00;5022944;28;20277;-85
2023/08/30 10:39:52;;;;;;;10.00;3.47;;;;;;;25.92;38.77;93120.25;5023123;28;20028;-85
2023/08/30 10:42:22;;;;;;;8.45;4.07;;;;;;;26.05;38.91;93114.84;5021848;28;20021;-85
2023/08/30 10:45:00;;;;;;;12.23;3.67;;;;;;;26.20;38.92;93116.00;5022902;28;20022;-86
2023/08/30 10:47:31;;;;;;;6.97;3.88;;;;;;;26.10;37.66;93111.59;5023170;28;20228;-85
2023/08/30 10:49:57;;;;;;;11.25;3.70;;;;;;;26.20;38.26;93110.53;5021780;28;20026;-86
2023/08/30 10:52:26;;;;;;;7.20;3.72;;;;;;;26.31;37.15;93112.97;5023014;28;20159;-85
2023/08/30 10:54:52;;;;;;;19.98;3.95;;;;;;;26.34;37.88;93103.19;5021808;28;20022;-85
2023/08/30 10:57:24;;;;;;;11.05;4.03;;;;;;;26.55;38.26;93110.78;5022969;28;20220;-85
2023/08/30 11:00:14;;;;;;;8.73;4.13;;;;;;;26.74;38.43;93105.59;5022977;28;20354;-86
2023/08/30 11:02:44;;;;;;;5.93;3.50;;;;;;;26.77;36.18;93102.00;5023020;28;20026;-85
2023/08/30 11:05:09;;;;;;;12.52;4.38;;;;;;;26.92;36.71;93097.63;5021777;28;20320;-86
2023/08/30 11:07:35;;;;;;;7.38;3.70;;;;;;;27.02;35.73;93098.53;5022734;28;20021;-85
2023/08/30 11:10:03;;;;;;;12.88;4.47;;;;;;;26.92;35.46;93103.09;5022843;28;20224;-85
2023/08/30 11:12:30;;;;;;;9.35;4.30;;;;;;;26.97;35.89;93097.09;5021509;28;20068;-85
2023/08/30 11:14:56;;;;;;;12.50;4.03;;;;;;;27.10;36.04;93093.59;5022773;28;20239;-85
2023/08/30 11:17:22;;;;;;;8.82;3.92;;;;;;;27.24;37.06;93097.91;5022375;28;20121;-85
2023/08/30 11:19:51;;;;;;;10.00;3.85;;;;;;;27.40;35.65;93093.06;5022638;28;20018;-85
2023/08/30 11:22:17;;;;;;;8.15;4.60;;;;;;;27.47;34.74;93092.06;5022583;28;20026;-85
2023/08/30 11:24:43;;;;;;;6.63;4.32;;;;;;;27.53;34.79;93082.09;5021320;28;20022;-85
2023/08/30 11:27:09;;;;;;;12.15;4.18;;;;;;;27.61;34.94;93074.44;5021546;28;20029;-85
2023/08/30 11:29:35;;;;;;;8.85;3.95;;;;;;;27.83;33.12;93066.28;5022686;28;20085;-85